createdAt,value
2022-08-17T00:00:02.130Z,21
2022-08-17T00:20:03.121Z,20.8
2022-08-17T00:40:02.426Z,20.5
2022-08-17T01:00:03.724Z,20.2
2022-08-17T01:20:02.399Z,20
2022-08-17T01:40:02.837Z,19.9
2022-08-17T02:00:02.476Z,19.8
2022-08-17T02:20:02.191Z,19.6
2022-08-17T02:40:02.645Z,19.3
2022-08-17T03:00:02.349Z,19.1
2022-08-17T03:20:03.018Z,18.8
2022-08-17T03:40:02.554Z,18.6
2022-08-17T04:00:03.098Z,18.5
2022-08-17T04:20:02.658Z,18.5
2022-08-17T04:40:04.262Z,18.7
2022-08-17T05:00:02.983Z,18.8
2022-08-17T05:20:02.958Z,19.5
2022-08-17T05:40:02.287Z,20.3
2022-08-17T06:00:02.789Z,21.2
2022-08-17T06:20:02.122Z,22.2
2022-08-17T06:40:02.485Z,22.6
2022-08-17T07:00:02.859Z,23
2022-08-17T07:20:02.505Z,24.9
2022-08-17T07:40:15.719Z,27.4
2022-08-17T08:00:03.132Z,29.4
2022-08-17T08:20:19.624Z,30.8
2022-08-17T08:40:02.616Z,32.3
2022-08-17T09:00:03.036Z,33.8
2022-08-17T09:20:02.514Z,34.7
2022-08-17T09:40:02.907Z,35.6
2022-08-17T10:00:02.474Z,36.1
2022-08-17T10:20:02.133Z,36.3
2022-08-17T10:40:02.468Z,35.8
2022-08-17T11:00:03.069Z,36
2022-08-17T11:20:02.525Z,36
2022-08-17T11:40:04.092Z,37
2022-08-17T12:00:03.809Z,37.3
2022-08-17T12:20:03.373Z,36
2022-08-17T12:40:03.026Z,34.9
2022-08-17T13:00:02.706Z,34.3
2022-08-17T13:20:03.100Z,33.9
2022-08-17T13:40:02.582Z,33.6
2022-08-17T14:00:03.189Z,33.2
2022-08-17T14:20:02.579Z,33.1
2022-08-17T14:40:03.221Z,33
2022-08-17T15:00:02.708Z,33
2022-08-17T15:40:02.791Z,32.2
2022-08-17T16:00:02.429Z,32.1
2022-08-17T16:20:02.940Z,32
2022-08-17T16:40:02.510Z,31.9
2022-08-17T17:00:02.908Z,31.7
2022-08-17T17:20:02.712Z,31.3
2022-08-17T17:40:03.072Z,30.8
2022-08-17T18:00:03.891Z,30.3
2022-08-17T18:20:03.827Z,29.7
2022-08-17T18:40:03.687Z,28.9
2022-08-17T19:00:03.561Z,28.3
2022-08-17T19:20:03.803Z,27.7
2022-08-17T19:40:03.031Z,27.1
2022-08-17T20:00:02.831Z,26.5
2022-08-17T20:20:02.320Z,26.1
2022-08-17T20:40:03.066Z,25.7
2022-08-17T21:00:02.633Z,25.4
2022-08-17T21:20:11.734Z,25.3
2022-08-17T21:40:03.182Z,25.2
2022-08-17T22:00:02.922Z,25.1
2022-08-17T22:20:02.587Z,24.8
2022-08-17T22:40:03.093Z,24.7
2022-08-17T23:00:02.830Z,24.4
2022-08-17T23:20:02.698Z,24.2
2022-08-17T23:40:02.492Z,23.9
